sensor_id;sensor_type;location;lat;lon;timestamp;pressure;altitude;pressure_sealevel;temperature;humidity
31121;BME280;17770;45.966;13.632;2023-04-25T00:01:47;99873.75;;;19.27;57.19
31121;BME280;17770;45.966;13.632;2023-04-25T00:04:13;99874.72;;;19.26;57.28
31121;BME280;17770;45.966;13.632;2023-04-25T00:06:39;99869.59;;;19.25;57.39
31121;BME280;17770;45.966;13.632;2023-04-25T00:09:05;99869.59;;;19.25;56.92
31121;BME280;17770;45.966;13.632;2023-04-25T00:11:35;99872.34;;;19.23;57.04
31121;BME280;17770;45.966;13.632;2023-04-25T00:14:02;99866.25;;;19.23;57.17
31121;BME280;17770;45.966;13.632;2023-04-25T00:16:28;99869.72;;;19.23;57.17
31121;BME280;17770;45.966;13.632;2023-04-25T00:18:56;99865.41;;;19.22;57.28
31121;BME280;17770;45.966;13.632;2023-04-25T00:21:22;99863.75;;;19.21;57.16
31121;BME280;17770;45.966;13.632;2023-04-25T00:23:50;99858.53;;;19.21;57.22
31121;BME280;17770;45.966;13.632;2023-04-25T00:26:15;99855.06;;;19.21;57.37
31121;BME280;17770;45.966;13.632;2023-04-25T00:28:41;99856.88;;;19.20;57.39
31121;BME280;17770;45.966;13.632;2023-04-25T00:31:07;99857.81;;;19.19;57.17
31121;BME280;17770;45.966;13.632;2023-04-25T00:33:33;99856.97;;;19.19;57.30
31121;BME280;17770;45.966;13.632;2023-04-25T00:35:59;99856.16;;;19.18;56.96
31121;BME280;17770;45.966;13.632;2023-04-25T00:38:25;99855.31;;;19.18;57.27
31121;BME280;17770;45.966;13.632;2023-04-25T00:40:51;99858.88;;;19.17;57.15
31121;BME280;17770;45.966;13.632;2023-04-25T00:43:18;99858.03;;;19.16;57.28
31121;BME280;17770;45.966;13.632;2023-04-25T00:45:44;99859.81;;;19.16;57.12
31121;BME280;17770;45.966;13.632;2023-04-25T00:48:13;99857.19;;;19.16;57.15
31121;BME280;17770;45.966;13.632;2023-04-25T00:50:39;99859.00;;;19.15;57.04
31121;BME280;17770;45.966;13.632;2023-04-25T00:53:06;99861.69;;;19.14;56.94
31121;BME280;17770;45.966;13.632;2023-04-25T00:55:32;99866.09;;;19.13;57.13
31121;BME280;17770;45.966;13.632;2023-04-25T00:58:00;99865.25;;;19.13;57.33
31121;BME280;17770;45.966;13.632;2023-04-25T01:00:26;99870.50;;;19.13;57.13
31121;BME280;17770;45.966;13.632;2023-04-25T01:02:52;99857.41;;;19.13;56.97
31121;BME280;17770;45.966;13.632;2023-04-25T01:05:18;99853.97;;;19.12;57.03
31121;BME280;17770;45.966;13.632;2023-04-25T01:07:44;99842.81;;;19.10;56.88
31121;BME280;17770;45.966;13.632;2023-04-25T01:10:10;99847.19;;;19.10;56.85
31121;BME280;17770;45.966;13.632;2023-04-25T01:12:37;99849.06;;;19.08;56.94
31121;BME280;17770;45.966;13.632;2023-04-25T01:15:03;99848.97;;;19.09;56.84
31121;BME280;17770;45.966;13.632;2023-04-25T01:17:29;99844.69;;;19.08;57.11
31121;BME280;17770;45.966;13.632;2023-04-25T01:19:55;99843.84;;;19.08;56.89
31121;BME280;17770;45.966;13.632;2023-04-25T01:22:21;99843.00;;;19.07;56.96
31121;BME280;17770;45.966;13.632;2023-04-25T01:24:47;99843.97;;;19.06;57.08
31121;BME280;17770;45.966;13.632;2023-04-25T01:27:13;99843.97;;;19.06;57.09
31121;BME280;17770;45.966;13.632;2023-04-25T01:29:39;99842.31;;;19.05;57.18
31121;BME280;17770;45.966;13.632;2023-04-25T01:32:05;99848.34;;;19.06;57.04
31121;BME280;17770;45.966;13.632;2023-04-25T01:34:32;99842.41;;;19.04;56.94
31121;BME280;17770;45.966;13.632;2023-04-25T01:36:59;99836.34;;;19.03;57.05
31121;BME280;17770;45.966;13.632;2023-04-25T01:39:25;99840.72;;;19.03;57.10
31121;BME280;17770;45.966;13.632;2023-04-25T01:41:51;99847.72;;;19.02;57.05
31121;BME280;17770;45.966;13.632;2023-04-25T01:44:17;99846.91;;;19.02;56.74
31121;BME280;17770;45.966;13.632;2023-04-25T01:46:43;99845.97;;;19.03;56.75
31121;BME280;17770;45.966;13.632;2023-04-25T01:49:10;99843.47;;;19.01;57.06
31121;BME280;17770;45.966;13.632;2023-04-25T01:51:37;99845.22;;;19.01;56.92
31121;BME280;17770;45.966;13.632;2023-04-25T01:54:03;99840.13;;;18.99;56.97
31121;BME280;17770;45.966;13.632;2023-04-25T01:56:32;99837.63;;;18.98;56.96
31121;BME280;17770;45.966;13.632;2023-04-25T01:58:59;99840.22;;;18.98;57.12
31121;BME280;17770;45.966;13.632;2023-04-25T02:01:53;99843.69;;;18.98;57.06
31121;BME280;17770;45.966;13.632;2023-04-25T02:04:25;99844.59;;;18.97;57.14
31121;BME280;17770;45.966;13.632;2023-04-25T02:06:51;99844.72;;;18.96;57.07
31121;BME280;17770;45.966;13.632;2023-04-25T02:09:17;99842.22;;;18.94;56.94
31121;BME280;17770;45.966;13.632;2023-04-25T02:11:48;99837.84;;;18.95;57.06
31121;BME280;17770;45.966;13.632;2023-04-25T02:14:36;99850.91;;;18.95;57.05
31121;BME280;17770;45.966;13.632;2023-04-25T02:17:12;99846.63;;;18.94;57.10
31121;BME280;17770;45.966;13.632;2023-04-25T02:19:39;99844.84;;;18.94;56.86
31121;BME280;17770;45.966;13.632;2023-04-25T02:22:06;99833.69;;;18.92;56.77
31121;BME280;17770;45.966;13.632;2023-04-25T02:24:32;99837.09;;;18.93;56.78
31121;BME280;17770;45.966;13.632;2023-04-25T02:26:59;99832.00;;;18.91;56.77
31121;BME280;17770;45.966;13.632;2023-04-25T02:29:25;99839.84;;;18.91;56.75
31121;BME280;17770;45.966;13.632;2023-04-25T02:31:51;99834.59;;;18.91;56.87
31121;BME280;17770;45.966;13.632;2023-04-25T02:34:17;99832.84;;;18.92;56.71
31121;BME280;17770;45.966;13.632;2023-04-25T02:36:43;99829.50;;;18.90;56.73
31121;BME280;17770;45.966;13.632;2023-04-25T02:39:08;99839.00;;;18.91;56.96
31121;BME280;17770;45.966;13.632;2023-04-25T02:41:34;99835.56;;;18.90;56.89
31121;BME280;17770;45.966;13.632;2023-04-25T02:44:00;99839.94;;;18.90;56.81
31121;BME280;17770;45.966;13.632;2023-04-25T02:46:26;99841.72;;;18.89;56.66
31121;BME280;17770;45.966;13.632;2023-04-25T02:48:52;99839.09;;;18.89;56.72
31121;BME280;17770;45.966;13.632;2023-04-25T02:51:18;99831.38;;;18.88;57.15
31121;BME280;17770;45.966;13.632;2023-04-25T02:53:44;99830.56;;;18.87;56.81
31121;BME280;17770;45.966;13.632;2023-04-25T02:56:09;99828.88;;;18.86;56.59
31121;BME280;17770;45.966;13.632;2023-04-25T02:58:35;99828.03;;;18.86;56.81
31121;BME280;17770;45.966;13.632;2023-04-25T03:01:01;99819.38;;;18.85;56.67
31121;BME280;17770;45.966;13.632;2023-04-25T03:03:27;99829.00;;;18.85;56.64
31121;BME280;17770;45.966;13.632;2023-04-25T03:05:53;99826.50;;;18.83;56.79
31121;BME280;17770;45.966;13.632;2023-04-25T03:08:24;99838.59;;;18.84;56.57
31121;BME280;17770;45.966;13.632;2023-04-25T03:10:50;99830.88;;;18.83;56.71
31121;BME280;17770;45.966;13.632;2023-04-25T03:13:18;99828.25;;;18.83;56.76
31121;BME280;17770;45.966;13.632;2023-04-25T03:15:44;99824.84;;;18.82;56.96
31121;BME280;17770;45.966;13.632;2023-04-25T03:18:10;99823.16;;;18.81;56.66
31121;BME280;17770;45.966;13.632;2023-04-25T03:20:36;99822.22;;;18.82;56.80
31121;BME280;17770;45.966;13.632;2023-04-25T03:23:03;99819.81;;;18.79;56.75
31121;BME280;17770;45.966;13.632;2023-04-25T03:25:29;99824.22;;;18.79;56.61
31121;BME280;17770;45.966;13.632;2023-04-25T03:27:55;99818.88;;;18.80;56.90
31121;BME280;17770;45.966;13.632;2023-04-25T03:30:21;99820.66;;;18.80;56.77
31121;BME280;17770;45.966;13.632;2023-04-25T03:32:48;99821.59;;;18.79;56.63
31121;BME280;17770;45.966;13.632;2023-04-25T03:35:16;99819.00;;;18.79;56.57
31121;BME280;17770;45.966;13.632;2023-04-25T03:37:42;99821.72;;;18.77;56.51
31121;BME280;17770;45.966;13.632;2023-04-25T03:40:13;99824.44;;;18.76;56.46
31121;BME280;17770;45.966;13.632;2023-04-25T03:43:17;99818.25;;;18.77;56.59
31121;BME280;17770;45.966;13.632;2023-04-25T03:45:49;99831.44;;;18.75;56.71
31121;BME280;17770;45.966;13.632;2023-04-25T03:48:18;99818.38;;;18.75;56.78
31121;BME280;17770;45.966;13.632;2023-04-25T03:50:47;99824.53;;;18.74;56.76
31121;BME280;17770;45.966;13.632;2023-04-25T03:53:13;99821.09;;;18.74;56.38
31121;BME280;17770;45.966;13.632;2023-04-25T03:55:59;99822.88;;;18.73;56.78
31121;BME280;17770;45.966;13.632;2023-04-25T03:58:25;99822.88;;;18.73;56.57
31121;BME280;17770;45.966;13.632;2023-04-25T04:00:50;99823.81;;;18.72;56.46
31121;BME280;17770;45.966;13.632;2023-04-25T04:03:17;99815.13;;;18.72;56.63
31121;BME280;17770;45.966;13.632;2023-04-25T04:05:43;99827.34;;;18.71;56.72
31121;BME280;17770;45.966;13.632;2023-04-25T04:08:09;99816.91;;;18.71;56.68
31121;BME280;17770;45.966;13.632;2023-04-25T04:10:36;99817.88;;;18.70;56.48
31121;BME280;17770;45.966;13.632;2023-04-25T04:13:02;99816.09;;;18.71;56.75
31121;BME280;17770;45.966;13.632;2023-04-25T04:15:28;99815.25;;;18.70;56.45
31121;BME280;17770;45.966;13.632;2023-04-25T04:17:54;99808.34;;;18.69;56.56
31121;BME280;17770;45.966;13.632;2023-04-25T04:20:21;99803.13;;;18.69;56.50
31121;BME280;17770;45.966;13.632;2023-04-25T04:22:47;99804.06;;;18.68;56.63
31121;BME280;17770;45.966;13.632;2023-04-25T04:25:14;99812.75;;;18.69;56.48
31121;BME280;17770;45.966;13.632;2023-04-25T04:27:59;99792.91;;;18.66;56.53
31121;BME280;17770;45.966;13.632;2023-04-25T04:30:38;99807.75;;;18.66;56.60
31121;BME280;17770;45.966;13.632;2023-04-25T04:33:07;99798.13;;;18.66;56.77
31121;BME280;17770;45.966;13.632;2023-04-25T04:35:33;99800.03;;;18.64;56.46
31121;BME280;17770;45.966;13.632;2023-04-25T04:37:59;99803.47;;;18.65;56.39
31121;BME280;17770;45.966;13.632;2023-04-25T04:40:30;99797.50;;;18.63;56.54
31121;BME280;17770;45.966;13.632;2023-04-25T04:43:25;99800.97;;;18.63;56.89
31121;BME280;17770;45.966;13.632;2023-04-25T04:46:09;99797.50;;;18.63;56.72
31121;BME280;17770;45.966;13.632;2023-04-25T04:48:50;99807.03;;;18.64;56.49
31121;BME280;17770;45.966;13.632;2023-04-25T04:51:39;99806.19;;;18.63;56.59
31121;BME280;17770;45.966;13.632;2023-04-25T04:54:26;99796.69;;;18.62;56.73
31121;BME280;17770;45.966;13.632;2023-04-25T04:57:13;99800.22;;;18.61;56.69
31121;BME280;17770;45.966;13.632;2023-04-25T04:59:52;99796.81;;;18.61;56.40
31121;BME280;17770;45.966;13.632;2023-04-25T05:02:38;99785.50;;;18.60;56.31
31121;BME280;17770;45.966;13.632;2023-04-25T05:05:30;99783.84;;;18.59;56.44
31121;BME280;17770;45.966;13.632;2023-04-25T05:08:12;99778.63;;;18.59;56.64
31121;BME280;17770;45.966;13.632;2023-04-25T05:11:04;99776.94;;;18.58;56.50
31121;BME280;17770;45.966;13.632;2023-04-25T05:13:40;99780.50;;;18.57;56.56
31121;BME280;17770;45.966;13.632;2023-04-25T05:16:35;99774.44;;;18.57;56.57
31121;BME280;17770;45.966;13.632;2023-04-25T05:19:24;99776.94;;;18.58;56.26
31121;BME280;17770;45.966;13.632;2023-04-25T05:22:01;99781.44;;;18.56;56.60
31121;BME280;17770;45.966;13.632;2023-04-25T05:24:33;99777.91;;;18.57;56.42
31121;BME280;17770;45.966;13.632;2023-04-25T05:27:05;99780.41;;;18.59;56.28
31121;BME280;17770;45.966;13.632;2023-04-25T05:29:48;99770.88;;;18.58;56.22
31121;BME280;17770;45.966;13.632;2023-04-25T05:32:25;99779.56;;;18.58;56.36
31121;BME280;17770;45.966;13.632;2023-04-25T05:34:51;99777.91;;;18.57;56.59
31121;BME280;17770;45.966;13.632;2023-04-25T05:37:24;99773.59;;;18.56;56.42
31121;BME280;17770;45.966;13.632;2023-04-25T05:39:56;99778.81;;;18.56;56.45
31121;BME280;17770;45.966;13.632;2023-04-25T05:42:48;99777.16;;;18.55;56.59
31121;BME280;17770;45.966;13.632;2023-04-25T05:45:47;99777.06;;;18.57;56.27
31121;BME280;17770;45.966;13.632;2023-04-25T05:48:31;99778.13;;;18.54;56.34
31121;BME280;17770;45.966;13.632;2023-04-25T05:51:21;99778.81;;;18.56;56.35
31121;BME280;17770;45.966;13.632;2023-04-25T05:54:10;99780.63;;;18.56;56.38
31121;BME280;17770;45.966;13.632;2023-04-25T05:56:36;99781.53;;;18.55;56.58
31121;BME280;17770;45.966;13.632;2023-04-25T05:59:02;99778.00;;;18.56;56.42
31121;BME280;17770;45.966;13.632;2023-04-25T06:01:28;99771.09;;;18.55;56.22
31121;BME280;17770;45.966;13.632;2023-04-25T06:03:54;99778.81;;;18.56;56.27
31121;BME280;17770;45.966;13.632;2023-04-25T06:06:20;99782.38;;;18.55;56.30
31121;BME280;17770;45.966;13.632;2023-04-25T06:08:46;99789.28;;;18.56;56.15
31121;BME280;17770;45.966;13.632;2023-04-25T06:11:12;99782.38;;;18.55;56.06
31121;BME280;17770;45.966;13.632;2023-04-25T06:13:38;99785.00;;;18.55;56.34
31121;BME280;17770;45.966;13.632;2023-04-25T06:16:04;99786.66;;;18.56;56.13
31121;BME280;17770;45.966;13.632;2023-04-25T06:18:30;99785.00;;;18.55;56.12
31121;BME280;17770;45.966;13.632;2023-04-25T06:20:57;99791.19;;;18.54;56.16
31121;BME280;17770;45.966;13.632;2023-04-25T06:23:23;99786.88;;;18.53;56.13
31121;BME280;17770;45.966;13.632;2023-04-25T06:25:57;99792.94;;;18.54;56.37
31121;BME280;17770;45.966;13.632;2023-04-25T06:28:24;99807.78;;;18.53;56.31
31121;BME280;17770;45.966;13.632;2023-04-25T06:30:50;99794.72;;;18.53;56.29
31121;BME280;17770;45.966;13.632;2023-04-25T06:33:18;99807.78;;;18.53;56.13
31121;BME280;17770;45.966;13.632;2023-04-25T06:35:44;99802.56;;;18.53;56.22
31121;BME280;17770;45.966;13.632;2023-04-25T06:38:12;99798.16;;;18.54;56.34
31121;BME280;17770;45.966;13.632;2023-04-25T06:40:41;99806.97;;;18.53;56.06
31121;BME280;17770;45.966;13.632;2023-04-25T06:43:08;99806.97;;;18.53;56.15
31121;BME280;17770;45.966;13.632;2023-04-25T06:45:52;99808.63;;;18.54;56.10
31121;BME280;17770;45.966;13.632;2023-04-25T06:48:20;99814.78;;;18.53;56.03
31121;BME280;17770;45.966;13.632;2023-04-25T06:50:46;99815.59;;;18.53;56.25
31121;BME280;17770;45.966;13.632;2023-04-25T06:53:12;99813.00;;;18.53;56.21
31121;BME280;17770;45.966;13.632;2023-04-25T06:55:39;99812.06;;;18.54;56.23
31121;BME280;17770;45.966;13.632;2023-04-25T06:58:15;99803.41;;;18.54;55.88
31121;BME280;17770;45.966;13.632;2023-04-25T07:00:56;99801.63;;;18.54;56.12
31121;BME280;17770;45.966;13.632;2023-04-25T07:03:24;99806.84;;;18.54;55.86
31121;BME280;17770;45.966;13.632;2023-04-25T07:05:53;99813.72;;;18.55;55.79
31121;BME280;17770;45.966;13.632;2023-04-25T07:08:20;99820.72;;;18.55;56.16
31121;BME280;17770;45.966;13.632;2023-04-25T07:10:47;99816.34;;;18.55;56.07
31121;BME280;17770;45.966;13.632;2023-04-25T07:13:13;99817.28;;;18.54;56.12
31121;BME280;17770;45.966;13.632;2023-04-25T07:15:38;99817.28;;;18.54;56.26
31121;BME280;17770;45.966;13.632;2023-04-25T07:18:05;99820.72;;;18.55;55.98
31121;BME280;17770;45.966;13.632;2023-04-25T07:20:31;99822.53;;;18.54;56.04
31121;BME280;17770;45.966;13.632;2023-04-25T07:22:58;99826.78;;;18.55;56.03
31121;BME280;17770;45.966;13.632;2023-04-25T07:25:24;99827.84;;;18.53;56.20
31121;BME280;17770;45.966;13.632;2023-04-25T07:27:50;99834.72;;;18.54;55.98
31121;BME280;17770;45.966;13.632;2023-04-25T07:30:18;99837.34;;;18.54;56.13
31121;BME280;17770;45.966;13.632;2023-04-25T07:32:44;99839.13;;;18.53;56.26
31121;BME280;17770;45.966;13.632;2023-04-25T07:35:11;99839.00;;;18.55;56.33
31121;BME280;17770;45.966;13.632;2023-04-25T07:37:37;99843.59;;;18.51;56.28
31121;BME280;17770;45.966;13.632;2023-04-25T07:40:15;99848.75;;;18.53;56.16
31121;BME280;17770;45.966;13.632;2023-04-25T07:42:55;99853.13;;;18.52;56.40
31121;BME280;17770;45.966;13.632;2023-04-25T07:45:48;99864.41;;;18.53;56.32
31121;BME280;17770;45.966;13.632;2023-04-25T07:48:16;99864.50;;;18.51;56.35
31121;BME280;17770;45.966;13.632;2023-04-25T07:50:43;99862.72;;;18.52;56.25
31121;BME280;17770;45.966;13.632;2023-04-25T07:53:09;99862.72;;;18.52;56.10
31121;BME280;17770;45.966;13.632;2023-04-25T07:55:45;99867.03;;;18.53;56.11
31121;BME280;17770;45.966;13.632;2023-04-25T07:58:14;99864.41;;;18.53;56.18
31121;BME280;17770;45.966;13.632;2023-04-25T08:00:43;99868.69;;;18.54;56.02
31121;BME280;17770;45.966;13.632;2023-04-25T08:03:35;99867.94;;;18.52;56.16
31121;BME280;17770;45.966;13.632;2023-04-25T08:06:04;99873.06;;;18.53;56.09
31121;BME280;17770;45.966;13.632;2023-04-25T08:08:34;99865.22;;;18.53;56.20
31121;BME280;17770;45.966;13.632;2023-04-25T08:11:00;99871.41;;;18.52;56.29
31121;BME280;17770;45.966;13.632;2023-04-25T08:13:26;99885.31;;;18.53;56.32
31121;BME280;17770;45.966;13.632;2023-04-25T08:15:52;99878.28;;;18.53;56.14
31121;BME280;17770;45.966;13.632;2023-04-25T08:18:19;99883.63;;;18.52;56.22
31121;BME280;17770;45.966;13.632;2023-04-25T08:20:47;99892.31;;;18.52;56.36
31121;BME280;17770;45.966;13.632;2023-04-25T08:23:14;99901.78;;;18.53;56.11
31121;BME280;17770;45.966;13.632;2023-04-25T08:25:47;99897.41;;;18.54;56.09
31121;BME280;17770;45.966;13.632;2023-04-25T08:28:15;99904.41;;;18.53;56.18
31121;BME280;17770;45.966;13.632;2023-04-25T08:30:41;99899.19;;;18.53;56.15
31121;BME280;17770;45.966;13.632;2023-04-25T08:33:10;99900.13;;;18.52;56.16
31121;BME280;17770;45.966;13.632;2023-04-25T08:35:57;99910.56;;;18.52;56.00
31121;BME280;17770;45.966;13.632;2023-04-25T08:38:24;99913.19;;;18.52;56.36
31121;BME280;17770;45.966;13.632;2023-04-25T08:40:50;99907.00;;;18.53;56.09
31121;BME280;17770;45.966;13.632;2023-04-25T08:43:20;99914.03;;;18.53;56.19
31121;BME280;17770;45.966;13.632;2023-04-25T08:45:46;99919.25;;;18.53;56.09
31121;BME280;17770;45.966;13.632;2023-04-25T08:48:20;99920.06;;;18.53;56.24
31121;BME280;17770;45.966;13.632;2023-04-25T08:50:50;99930.53;;;18.53;56.24
31121;BME280;17770;45.966;13.632;2023-04-25T08:53:20;99931.38;;;18.54;56.45
31121;BME280;17770;45.966;13.632;2023-04-25T08:55:47;99939.19;;;18.54;56.64
31121;BME280;17770;45.966;13.632;2023-04-25T08:58:14;99934.72;;;18.56;56.61
31121;BME280;17770;45.966;13.632;2023-04-25T09:00:40;99942.34;;;18.59;56.58
31121;BME280;17770;45.966;13.632;2023-04-25T09:03:06;99937.09;;;18.59;56.66
31121;BME280;17770;45.966;13.632;2023-04-25T09:05:33;99940.56;;;18.59;56.54
31121;BME280;17770;45.966;13.632;2023-04-25T09:08:00;99947.44;;;18.60;56.60
31121;BME280;17770;45.966;13.632;2023-04-25T09:10:27;99939.50;;;18.62;56.46
31121;BME280;17770;45.966;13.632;2023-04-25T09:13:05;99948.19;;;18.62;56.42
31121;BME280;17770;45.966;13.632;2023-04-25T09:15:48;99942.00;;;18.63;56.59
31121;BME280;17770;45.966;13.632;2023-04-25T09:20:51;99942.97;;;18.62;56.51
31121;BME280;17770;45.966;13.632;2023-04-25T09:23:19;99939.28;;;18.65;56.10
31121;BME280;17770;45.966;13.632;2023-04-25T09:25:47;99948.91;;;18.64;56.33
31121;BME280;17770;45.966;13.632;2023-04-25T09:28:13;99941.09;;;18.64;56.22
31121;BME280;17770;45.966;13.632;2023-04-25T09:30:39;99949.84;;;18.63;56.12
31121;BME280;17770;45.966;13.632;2023-04-25T09:33:29;99952.34;;;18.65;56.04
31121;BME280;17770;45.966;13.632;2023-04-25T09:36:01;99954.16;;;18.64;56.03
31121;BME280;17770;45.966;13.632;2023-04-25T09:38:47;99950.69;;;18.64;56.42
31121;BME280;17770;45.966;13.632;2023-04-25T09:41:27;99959.38;;;18.64;56.36
31121;BME280;17770;45.966;13.632;2023-04-25T09:43:58;99958.53;;;18.64;56.39
31121;BME280;17770;45.966;13.632;2023-04-25T09:46:33;99948.91;;;18.64;56.24
31121;BME280;17770;45.966;13.632;2023-04-25T09:48:59;99943.69;;;18.64;56.34
31121;BME280;17770;45.966;13.632;2023-04-25T09:51:36;99941.09;;;18.64;56.33
31121;BME280;17770;45.966;13.632;2023-04-25T09:54:03;99941.09;;;18.64;56.10
31121;BME280;17770;45.966;13.632;2023-04-25T09:56:55;99933.25;;;18.64;56.17
31121;BME280;17770;45.966;13.632;2023-04-25T09:59:22;99931.44;;;18.65;56.00
31121;BME280;17770;45.966;13.632;2023-04-25T10:01:49;99927.91;;;18.66;56.13
31121;BME280;17770;45.966;13.632;2023-04-25T10:04:24;99938.25;;;18.67;56.25
31121;BME280;17770;45.966;13.632;2023-04-25T10:06:55;99927.91;;;18.66;56.23
31121;BME280;17770;45.966;13.632;2023-04-25T10:09:23;99933.13;;;18.66;56.17
31121;BME280;17770;45.966;13.632;2023-04-25T10:11:49;99934.06;;;18.65;56.18
31121;BME280;17770;45.966;13.632;2023-04-25T10:14:16;99944.41;;;18.66;56.20
31121;BME280;17770;45.966;13.632;2023-04-25T10:16:42;99942.63;;;18.67;56.28
31121;BME280;17770;45.966;13.632;2023-04-25T10:19:09;99928.72;;;18.66;56.38
31121;BME280;17770;45.966;13.632;2023-04-25T10:21:35;99930.41;;;18.67;56.13
31121;BME280;17770;45.966;13.632;2023-04-25T10:24:02;99927.81;;;18.67;56.32
31121;BME280;17770;45.966;13.632;2023-04-25T10:26:28;99927.81;;;18.67;56.29
31121;BME280;17770;45.966;13.632;2023-04-25T10:28:58;99920.78;;;18.68;56.30
31121;BME280;17770;45.966;13.632;2023-04-25T10:31:24;99911.19;;;18.68;56.12
31121;BME280;17770;45.966;13.632;2023-04-25T10:33:51;99921.50;;;18.70;56.10
31121;BME280;17770;45.966;13.632;2023-04-25T10:36:18;99915.44;;;18.69;56.13
31121;BME280;17770;45.966;13.632;2023-04-25T10:38:44;99913.69;;;18.70;56.37
31121;BME280;17770;45.966;13.632;2023-04-25T10:41:11;99909.41;;;18.69;56.22
31121;BME280;17770;45.966;13.632;2023-04-25T10:43:38;99907.72;;;18.68;56.38
31121;BME280;17770;45.966;13.632;2023-04-25T10:46:17;99916.28;;;18.70;56.31
31121;BME280;17770;45.966;13.632;2023-04-25T10:48:54;99914.53;;;18.70;56.26
31121;BME280;17770;45.966;13.632;2023-04-25T10:53:56;99922.34;;;18.70;56.33
31121;BME280;17770;45.966;13.632;2023-04-25T10:56:23;99911.91;;;18.70;56.28
31121;BME280;17770;45.966;13.632;2023-04-25T10:58:50;99908.44;;;18.70;56.28
31121;BME280;17770;45.966;13.632;2023-04-25T11:01:20;99910.16;;;18.71;56.09
31121;BME280;17770;45.966;13.632;2023-04-25T11:03:46;99906.56;;;18.72;56.18
31121;BME280;17770;45.966;13.632;2023-04-25T11:08:57;99890.91;;;18.72;56.20
31121;BME280;17770;45.966;13.632;2023-04-25T11:11:25;99894.47;;;18.71;56.16
31121;BME280;17770;45.966;13.632;2023-04-25T11:13:52;99885.69;;;18.72;56.09
31121;BME280;17770;45.966;13.632;2023-04-25T11:16:18;99886.53;;;18.72;56.27
31121;BME280;17770;45.966;13.632;2023-04-25T11:18:44;99886.41;;;18.74;56.24
31121;BME280;17770;45.966;13.632;2023-04-25T11:21:10;99891.63;;;18.74;56.36
31121;BME280;17770;45.966;13.632;2023-04-25T11:23:36;99890.69;;;18.75;56.19
31121;BME280;17770;45.966;13.632;2023-04-25T11:26:02;99886.41;;;18.74;56.29
31121;BME280;17770;45.966;13.632;2023-04-25T11:28:28;99888.19;;;18.73;56.18
31121;BME280;17770;45.966;13.632;2023-04-25T11:30:55;99881.19;;;18.74;56.31
31121;BME280;17770;45.966;13.632;2023-04-25T11:33:24;99878.47;;;18.75;56.15
31121;BME280;17770;45.966;13.632;2023-04-25T11:35:52;99875.00;;;18.75;56.52
31121;BME280;17770;45.966;13.632;2023-04-25T11:38:18;99872.41;;;18.75;56.15
31121;BME280;17770;45.966;13.632;2023-04-25T11:40:48;99880.22;;;18.75;56.48
31121;BME280;17770;45.966;13.632;2023-04-25T11:43:14;99881.91;;;18.76;56.19
31121;BME280;17770;45.966;13.632;2023-04-25T11:45:40;99888.06;;;18.75;56.19
31121;BME280;17770;45.966;13.632;2023-04-25T11:48:06;99887.03;;;18.77;56.46
31121;BME280;17770;45.966;13.632;2023-04-25T11:50:32;99881.06;;;18.75;56.46
31121;BME280;17770;45.966;13.632;2023-04-25T11:52:58;99879.19;;;18.77;56.49
31121;BME280;17770;45.966;13.632;2023-04-25T11:55:23;99882.72;;;18.76;56.46
31121;BME280;17770;45.966;13.632;2023-04-25T11:57:50;99880.13;;;18.76;56.42
31121;BME280;17770;45.966;13.632;2023-04-25T12:00:19;99878.34;;;18.77;56.37
31121;BME280;17770;45.966;13.632;2023-04-25T12:02:51;99877.50;;;18.76;56.20
31121;BME280;17770;45.966;13.632;2023-04-25T12:05:17;99868.75;;;18.77;56.39
31121;BME280;17770;45.966;13.632;2023-04-25T12:07:43;99870.41;;;18.78;56.54
31121;BME280;17770;45.966;13.632;2023-04-25T12:10:11;99871.34;;;18.77;56.23
31121;BME280;17770;45.966;13.632;2023-04-25T12:12:38;99871.34;;;18.77;56.25
31121;BME280;17770;45.966;13.632;2023-04-25T12:15:16;99870.41;;;18.78;56.49
31121;BME280;17770;45.966;13.632;2023-04-25T12:17:45;99866.84;;;18.79;56.32
31121;BME280;17770;45.966;13.632;2023-04-25T12:20:12;99859.00;;;18.79;56.39
31121;BME280;17770;45.966;13.632;2023-04-25T12:22:42;99861.59;;;18.79;56.09
31121;BME280;17770;45.966;13.632;2023-04-25T12:25:12;99854.72;;;18.78;56.30
31121;BME280;17770;45.966;13.632;2023-04-25T12:27:38;99855.47;;;18.80;56.42
31121;BME280;17770;45.966;13.632;2023-04-25T12:30:07;99847.63;;;18.80;56.47
31121;BME280;17770;45.966;13.632;2023-04-25T12:32:33;99851.16;;;18.79;56.47
31121;BME280;17770;45.966;13.632;2023-04-25T12:34:59;99844.16;;;18.80;56.20
31121;BME280;17770;45.966;13.632;2023-04-25T12:37:25;99839.78;;;18.80;56.30
31121;BME280;17770;45.966;13.632;2023-04-25T12:39:51;99832.75;;;18.81;56.35
31121;BME280;17770;45.966;13.632;2023-04-25T12:42:17;99830.97;;;18.81;56.33
31121;BME280;17770;45.966;13.632;2023-04-25T12:44:43;99830.13;;;18.81;56.45
31121;BME280;17770;45.966;13.632;2023-04-25T12:47:09;99828.25;;;18.83;56.30
31121;BME280;17770;45.966;13.632;2023-04-25T12:49:35;99826.50;;;18.83;56.46
31121;BME280;17770;45.966;13.632;2023-04-25T12:52:01;99829.09;;;18.83;56.23
31121;BME280;17770;45.966;13.632;2023-04-25T12:54:27;99821.25;;;18.83;56.34
31121;BME280;17770;45.966;13.632;2023-04-25T12:56:52;99821.25;;;18.83;56.34
31121;BME280;17770;45.966;13.632;2023-04-25T12:59:18;99818.66;;;18.83;56.23
31121;BME280;17770;45.966;13.632;2023-04-25T13:01:46;99814.28;;;18.84;56.34
31121;BME280;17770;45.966;13.632;2023-04-25T13:04:11;99816.88;;;18.84;56.34
31121;BME280;17770;45.966;13.632;2023-04-25T13:06:37;99810.69;;;18.85;56.49
31121;BME280;17770;45.966;13.632;2023-04-25T13:09:03;99802.03;;;18.84;56.34
31121;BME280;17770;45.966;13.632;2023-04-25T13:11:29;99796.78;;;18.84;56.29